createdAt,value
2019-06-01T00:01:07.250Z,14.60
2019-06-01T00:03:40.258Z,14.40
2019-06-01T00:06:16.699Z,14.40
2019-06-01T00:08:49.305Z,14.40
2019-06-01T00:11:21.235Z,14.60
2019-06-01T00:13:53.451Z,14.20
2019-06-01T00:16:25.672Z,14.00
2019-06-01T00:19:00.505Z,14.30
2019-06-01T00:21:32.416Z,14.10
2019-06-01T00:24:05.093Z,14.10
2019-06-01T00:26:37.578Z,14.10
2019-06-01T00:29:09.444Z,14.10
2019-06-01T00:31:42.955Z,14.00
2019-06-01T00:34:15.382Z,14.00
2019-06-01T00:36:47.806Z,14.20
2019-06-01T00:39:20.135Z,14.00
2019-06-01T00:41:52.629Z,13.90
2019-06-01T00:44:25.068Z,14.00
2019-06-01T00:46:57.163Z,14.00
2019-06-01T00:49:30.017Z,13.80
2019-06-01T00:52:02.015Z,13.70
2019-06-01T00:54:34.208Z,13.80
2019-06-01T00:57:06.819Z,14.10
2019-06-01T00:59:39.076Z,13.90
2019-06-01T01:02:10.920Z,14.10
2019-06-01T01:04:44.163Z,13.80
2019-06-01T01:07:18.931Z,13.60
2019-06-01T01:09:51.486Z,13.70
2019-06-01T01:12:23.713Z,13.70
2019-06-01T01:14:55.858Z,13.80
2019-06-01T01:17:27.697Z,13.70
2019-06-01T01:19:59.635Z,13.90
2019-06-01T01:22:31.968Z,13.80
2019-06-01T01:25:05.039Z,13.80
2019-06-01T01:27:36.963Z,14.00
2019-06-01T01:30:09.180Z,13.90
2019-06-01T01:32:41.295Z,13.80
2019-06-01T01:35:13.555Z,13.70
2019-06-01T01:37:45.746Z,13.70
2019-06-01T01:40:17.665Z,13.60
2019-06-01T01:42:50.570Z,13.70
2019-06-01T01:45:22.642Z,13.70
2019-06-01T01:47:55.072Z,13.80
2019-06-01T01:50:27.995Z,13.90
2019-06-01T01:53:00.232Z,13.70
2019-06-01T01:55:32.397Z,13.80
2019-06-01T01:58:04.441Z,13.50
2019-06-01T02:00:46.957Z,13.50
2019-06-01T02:03:18.811Z,13.70
2019-06-01T02:05:51.154Z,13.60
2019-06-01T02:08:23.050Z,13.70
2019-06-01T02:10:55.434Z,13.50
2019-06-01T02:13:27.259Z,13.50
2019-06-01T02:16:00.543Z,13.30
2019-06-01T02:18:33.077Z,13.30
2019-06-01T02:21:05.071Z,13.40
2019-06-01T02:23:37.255Z,13.40
2019-06-01T02:26:09.594Z,13.50
2019-06-01T02:28:41.442Z,13.30
2019-06-01T02:31:13.343Z,13.40
2019-06-01T02:33:45.196Z,13.40
2019-06-01T02:36:17.078Z,13.20
2019-06-01T02:38:48.930Z,13.20
2019-06-01T02:41:21.231Z,13.30
2019-06-01T02:43:54.751Z,13.40
2019-06-01T02:46:27.423Z,13.50
2019-06-01T02:49:01.910Z,13.40
2019-06-01T02:51:34.097Z,13.20
2019-06-01T02:54:07.034Z,13.50
2019-06-01T02:56:39.188Z,13.30
2019-06-01T02:59:11.320Z,13.30
2019-06-01T03:01:56.009Z,13.10
2019-06-01T03:04:17.121Z,13.10
2019-06-01T03:06:50.220Z,13.10
2019-06-01T03:09:23.857Z,13.10
2019-06-01T03:12:00.344Z,12.90
2019-06-01T03:14:34.679Z,12.90
2019-06-01T03:17:07.892Z,12.90
2019-06-01T03:19:41.784Z,13.00
2019-06-01T03:22:16.250Z,12.90
2019-06-01T03:24:48.568Z,13.00
2019-06-01T03:27:23.189Z,13.10
2019-06-01T03:29:57.433Z,13.00
2019-06-01T03:32:36.909Z,13.10
2019-06-01T03:35:03.213Z,13.20
2019-06-01T03:37:35.883Z,13.10
2019-06-01T03:40:15.820Z,13.20
2019-06-01T03:42:42.071Z,13.00
2019-06-01T03:45:14.149Z,13.30
2019-06-01T03:47:46.077Z,13.20
2019-06-01T03:50:18.321Z,13.20
2019-06-01T03:52:50.187Z,13.20
2019-06-01T03:55:22.345Z,13.00
2019-06-01T03:57:54.703Z,13.10
2019-06-01T04:00:26.857Z,13.10
2019-06-01T04:02:58.777Z,13.10
2019-06-01T04:05:30.641Z,13.10
2019-06-01T04:08:03.470Z,13.20
2019-06-01T04:10:35.590Z,13.20
2019-06-01T04:13:07.599Z,13.30
2019-06-01T04:15:39.495Z,13.20
2019-06-01T04:18:13.879Z,13.20
2019-06-01T04:20:45.320Z,13.30
2019-06-01T04:23:17.202Z,13.20
2019-06-01T04:25:49.046Z,13.10
2019-06-01T04:28:21.472Z,13.20
2019-06-01T04:30:53.607Z,13.20
2019-06-01T04:33:25.494Z,13.40
2019-06-01T04:35:57.325Z,13.30
2019-06-01T04:38:29.217Z,13.70
2019-06-01T04:41:01.396Z,13.80
2019-06-01T04:43:33.598Z,13.90
2019-06-01T04:46:06.149Z,14.00
2019-06-01T04:48:38.470Z,14.00
2019-06-01T04:51:12.144Z,14.00
2019-06-01T04:53:44.751Z,14.00
2019-06-01T04:56:16.578Z,13.60
2019-06-01T04:58:48.995Z,13.90
2019-06-01T05:01:21.434Z,14.00
2019-06-01T05:03:54.459Z,14.40
2019-06-01T05:06:26.313Z,14.50
2019-06-01T05:08:58.564Z,14.60
2019-06-01T05:11:30.952Z,14.80
2019-06-01T05:14:03.367Z,14.90
2019-06-01T05:16:35.588Z,14.80
2019-06-01T05:19:08.060Z,14.80
2019-06-01T05:21:40.235Z,14.80
2019-06-01T05:24:12.715Z,14.90
2019-06-01T05:26:44.889Z,15.00
2019-06-01T05:29:18.132Z,15.20
2019-06-01T05:31:50.277Z,15.20
2019-06-01T05:34:22.333Z,15.30
2019-06-01T05:36:54.476Z,15.60
2019-06-01T05:39:26.385Z,15.70
2019-06-01T05:41:58.530Z,15.80
2019-06-01T05:44:31.319Z,16.20
2019-06-01T05:47:03.500Z,16.20
2019-06-01T05:49:35.755Z,16.40
2019-06-01T05:52:08.093Z,16.60
2019-06-01T05:54:40.257Z,16.90
2019-06-01T05:57:12.886Z,16.90
2019-06-01T05:59:45.069Z,17.20
2019-06-01T06:02:17.523Z,17.30
2019-06-01T06:04:49.675Z,17.50
2019-06-01T06:07:21.394Z,17.60
2019-06-01T06:09:53.544Z,18.00
2019-06-01T06:12:25.473Z,18.20
2019-06-01T06:14:57.656Z,18.60
2019-06-01T06:17:29.545Z,18.70
2019-06-01T06:20:02.436Z,18.80
2019-06-01T06:22:34.838Z,19.10
2019-06-01T06:25:07.354Z,19.00
2019-06-01T06:27:39.277Z,19.30
2019-06-01T06:30:12.732Z,19.40
2019-06-01T06:32:44.782Z,19.70
2019-06-01T06:35:17.402Z,19.60
2019-06-01T06:37:50.054Z,20.00
2019-06-01T06:40:24.342Z,20.20
2019-06-01T06:42:56.474Z,20.30
2019-06-01T06:45:29.418Z,20.60
2019-06-01T06:48:01.561Z,20.70
2019-06-01T06:50:34.180Z,21.20
2019-06-01T06:53:06.294Z,21.10
2019-06-01T06:55:39.797Z,21.60
2019-06-01T06:58:11.587Z,22.00
2019-06-01T07:00:43.518Z,22.10
2019-06-01T07:03:16.805Z,22.40
2019-06-01T07:05:48.922Z,22.60
2019-06-01T07:08:21.761Z,22.60
2019-06-01T07:10:53.870Z,22.80
2019-06-01T07:13:26.031Z,23.10
2019-06-01T07:15:58.213Z,23.40
2019-06-01T07:18:33.136Z,23.30
2019-06-01T07:21:08.136Z,23.30
2019-06-01T07:23:40.403Z,23.60
2019-06-01T07:26:12.604Z,23.70
2019-06-01T07:28:46.122Z,23.90
2019-06-01T07:31:20.105Z,24.10
2019-06-01T07:33:53.113Z,24.40
2019-06-01T07:36:26.977Z,24.50
2019-06-01T07:39:00.003Z,24.80
2019-06-01T07:41:33.037Z,24.80
2019-06-01T07:44:05.331Z,24.70
2019-06-01T07:46:37.327Z,25.20
2019-06-01T07:49:09.534Z,25.10
2019-06-01T07:51:42.136Z,25.30
2019-06-01T07:54:14.067Z,25.40
2019-06-01T07:56:46.304Z,25.30
2019-06-01T07:59:18.552Z,25.60
2019-06-01T08:01:51.025Z,25.20
2019-06-01T08:04:24.705Z,25.50
2019-06-01T08:06:57.528Z,25.80
2019-06-01T08:09:29.851Z,25.90
2019-06-01T08:12:02.529Z,25.80
2019-06-01T08:14:34.635Z,25.80
2019-06-01T08:17:06.782Z,25.80
2019-06-01T08:19:38.898Z,26.00
2019-06-01T08:22:12.597Z,26.00
2019-06-01T08:24:44.529Z,26.40
2019-06-01T08:27:16.434Z,26.70
2019-06-01T08:29:48.673Z,26.60
2019-06-01T08:32:22.610Z,26.50
2019-06-01T08:35:07.941Z,26.70
2019-06-01T08:37:29.843Z,26.70
2019-06-01T08:40:02.124Z,26.80
2019-06-01T08:42:34.088Z,27.00
2019-06-01T08:45:06.709Z,27.20
2019-06-01T08:47:39.112Z,27.10
2019-06-01T08:50:11.753Z,27.30
2019-06-01T08:52:43.759Z,27.60
2019-06-01T08:55:17.414Z,27.80
2019-06-01T08:57:49.434Z,27.30
2019-06-01T09:00:21.246Z,27.40
2019-06-01T09:02:53.115Z,27.50
2019-06-01T09:05:26.787Z,27.40
2019-06-01T09:07:58.862Z,27.30
2019-06-01T09:10:31.434Z,27.80
2019-06-01T09:13:03.516Z,27.90
2019-06-01T09:15:36.244Z,28.20
2019-06-01T09:18:08.121Z,28.20
2019-06-01T09:20:40.624Z,27.90
2019-06-01T09:23:13.286Z,27.90
2019-06-01T09:25:45.527Z,27.90
2019-06-01T09:28:17.458Z,27.70
2019-06-01T09:30:49.286Z,27.70
2019-06-01T09:33:21.871Z,27.80
2019-06-01T09:35:56.541Z,27.70
2019-06-01T09:38:31.595Z,28.10
2019-06-01T09:41:05.044Z,28.10
2019-06-01T09:43:37.517Z,28.50
2019-06-01T09:46:09.679Z,28.10
2019-06-01T09:48:41.587Z,28.20
2019-06-01T09:51:13.909Z,28.40
2019-06-01T09:53:45.806Z,28.50
2019-06-01T09:56:17.972Z,28.40
2019-06-01T09:58:50.163Z,28.60
2019-06-01T10:01:22.802Z,28.60
2019-06-01T10:03:55.242Z,28.60
2019-06-01T10:06:28.371Z,28.50
2019-06-01T10:09:00.638Z,28.30
2019-06-01T10:11:34.227Z,28.50
2019-06-01T10:14:06.681Z,28.60
2019-06-01T10:16:39.040Z,28.50
2019-06-01T10:19:11.518Z,28.70
2019-06-01T10:21:43.861Z,28.90
2019-06-01T10:24:16.153Z,28.70
2019-06-01T10:26:48.041Z,29.30
2019-06-01T10:29:20.680Z,29.40
2019-06-01T10:31:52.554Z,30.00
2019-06-01T10:34:24.981Z,29.90
2019-06-01T10:36:58.209Z,29.70
2019-06-01T10:39:31.223Z,30.20
2019-06-01T10:42:03.574Z,30.00
2019-06-01T10:44:41.388Z,30.20
2019-06-01T10:47:09.858Z,30.30
2019-06-01T10:49:42.466Z,29.80
2019-06-01T10:52:14.566Z,29.90
2019-06-01T10:54:46.869Z,29.90
2019-06-01T10:57:18.697Z,30.10
2019-06-01T10:59:52.189Z,30.40
2019-06-01T11:02:24.702Z,30.80
2019-06-01T11:04:56.585Z,31.10
2019-06-01T11:07:29.035Z,31.50
2019-06-01T11:10:01.019Z,32.00
2019-06-01T11:12:33.121Z,32.10
2019-06-01T11:15:05.525Z,32.30
2019-06-01T11:17:37.385Z,31.70
2019-06-01T11:20:10.007Z,31.70
2019-06-01T11:22:43.737Z,31.80
2019-06-01T11:25:15.638Z,32.10
2019-06-01T11:27:47.522Z,32.30
2019-06-01T11:30:21.608Z,32.20
2019-06-01T11:32:54.093Z,32.50
2019-06-01T11:35:26.529Z,32.30
2019-06-01T11:37:58.831Z,32.80
2019-06-01T11:40:32.024Z,33.00
2019-06-01T11:43:05.007Z,33.60
2019-06-01T11:45:37.168Z,33.50
2019-06-01T11:48:09.566Z,34.10
2019-06-01T11:50:43.010Z,34.00
2019-06-01T11:53:15.720Z,34.20
2019-06-01T11:55:48.195Z,34.80
2019-06-01T11:58:20.057Z,34.80
2019-06-01T12:00:51.933Z,34.90
2019-06-01T12:03:24.087Z,35.50
2019-06-01T12:05:56.766Z,36.00
2019-06-01T12:08:33.796Z,36.90
2019-06-01T12:11:03.526Z,37.30
2019-06-01T12:13:36.029Z,37.70
2019-06-01T12:16:08.228Z,38.40
2019-06-01T12:18:40.610Z,38.30
2019-06-01T12:21:12.797Z,38.70
2019-06-01T12:23:45.693Z,38.60
2019-06-01T12:26:20.624Z,37.00
2019-06-01T12:28:52.743Z,37.70
2019-06-01T12:31:25.216Z,38.40
2019-06-01T12:33:57.477Z,38.70
2019-06-01T12:36:29.888Z,38.60
2019-06-01T12:39:01.723Z,39.00
2019-06-01T12:41:33.690Z,39.00
2019-06-01T12:44:15.818Z,39.70
2019-06-01T12:46:49.007Z,39.70
2019-06-01T12:49:21.085Z,39.90
2019-06-01T12:51:53.403Z,39.60
2019-06-01T12:54:25.308Z,38.30
2019-06-01T12:56:57.509Z,38.50
2019-06-01T12:59:29.345Z,39.30
2019-06-01T13:02:01.619Z,40.10
2019-06-01T13:04:34.248Z,40.70
2019-06-01T13:07:06.882Z,41.10
2019-06-01T13:09:39.325Z,41.20
2019-06-01T13:12:11.157Z,39.70
2019-06-01T13:14:43.386Z,37.00
2019-06-01T13:17:15.872Z,35.60
2019-06-01T13:19:48.008Z,35.60
2019-06-01T13:22:20.934Z,35.20
2019-06-01T13:24:53.263Z,36.00
2019-06-01T13:27:25.255Z,37.40
2019-06-01T13:29:57.569Z,38.40
2019-06-01T13:32:29.731Z,39.40
2019-06-01T13:35:02.117Z,39.20
2019-06-01T13:37:34.333Z,38.80
2019-06-01T13:40:06.322Z,38.50
2019-06-01T13:42:38.209Z,37.60
2019-06-01T13:45:10.387Z,37.50
2019-06-01T13:47:43.421Z,37.60
2019-06-01T13:50:16.011Z,37.70
2019-06-01T13:52:48.092Z,38.40
2019-06-01T13:55:19.920Z,38.40
2019-06-01T13:57:52.460Z,39.10
2019-06-01T14:00:30.225Z,39.20
2019-06-01T14:02:58.717Z,40.10
2019-06-01T14:05:31.352Z,40.00
2019-06-01T14:08:04.038Z,40.70
2019-06-01T14:10:35.913Z,40.50
2019-06-01T14:13:07.792Z,40.40
2019-06-01T14:15:39.629Z,39.70
2019-06-01T14:18:12.241Z,39.60
2019-06-01T14:20:45.513Z,39.80
2019-06-01T14:23:18.185Z,40.00
2019-06-01T14:25:50.238Z,40.10
2019-06-01T14:28:22.360Z,40.80
2019-06-01T14:30:54.385Z,40.70
2019-06-01T14:33:26.489Z,38.80
2019-06-01T14:35:58.659Z,36.70
2019-06-01T14:38:45.978Z,35.40
2019-06-01T14:41:04.206Z,34.60
2019-06-01T14:43:36.531Z,33.30
2019-06-01T14:46:08.773Z,32.90
2019-06-01T14:48:41.282Z,32.40
2019-06-01T14:51:14.077Z,32.60
2019-06-01T14:53:47.510Z,31.80
2019-06-01T14:56:19.614Z,32.00
2019-06-01T14:58:51.972Z,32.10
2019-06-01T15:01:32.606Z,32.00
2019-06-01T15:03:58.407Z,33.00
2019-06-01T15:06:31.296Z,33.80
2019-06-01T15:09:17.953Z,33.80
2019-06-01T15:11:37.247Z,33.50
2019-06-01T15:14:09.431Z,34.50
2019-06-01T15:16:41.543Z,34.80
2019-06-01T15:19:15.058Z,35.40
2019-06-01T15:21:47.055Z,35.90
2019-06-01T15:24:19.236Z,36.30
2019-06-01T15:26:52.450Z,36.70
2019-06-01T15:29:24.960Z,36.80
2019-06-01T15:31:58.043Z,37.40
2019-06-01T15:34:30.191Z,37.70
2019-06-01T15:37:02.400Z,37.70
2019-06-01T15:39:34.746Z,36.50
2019-06-01T15:42:06.682Z,35.70
2019-06-01T15:44:38.605Z,35.60
2019-06-01T15:47:11.564Z,35.90
2019-06-01T15:49:44.072Z,35.90
2019-06-01T15:52:16.079Z,35.80
2019-06-01T15:54:49.615Z,35.40
2019-06-01T15:57:22.051Z,34.60
2019-06-01T15:59:54.560Z,33.40
2019-06-01T16:02:27.255Z,32.90
2019-06-01T16:05:01.295Z,33.30
2019-06-01T16:07:33.322Z,33.70
2019-06-01T16:10:08.032Z,34.20
2019-06-01T16:12:39.178Z,34.80
2019-06-01T16:15:11.253Z,34.80
2019-06-01T16:17:43.508Z,35.10
2019-06-01T16:20:16.786Z,35.30
2019-06-01T16:22:49.137Z,35.60
2019-06-01T16:25:21.671Z,35.00
2019-06-01T16:27:54.589Z,33.70
2019-06-01T16:30:26.934Z,32.90
2019-06-01T16:32:58.816Z,31.90
2019-06-01T16:35:30.849Z,31.10
2019-06-01T16:38:04.070Z,30.70
2019-06-01T16:40:37.047Z,30.10
2019-06-01T16:43:09.733Z,29.70
2019-06-01T16:45:42.320Z,29.00
2019-06-01T16:48:14.822Z,29.00
2019-06-01T16:50:47.515Z,29.10
2019-06-01T16:53:19.953Z,29.10
2019-06-01T16:55:52.258Z,29.10
2019-06-01T16:58:24.641Z,28.90
2019-06-01T17:00:58.518Z,28.70
2019-06-01T17:03:30.731Z,28.70
2019-06-01T17:06:03.258Z,28.80
2019-06-01T17:08:35.108Z,28.40
2019-06-01T17:11:07.539Z,28.20
2019-06-01T17:13:39.885Z,28.10
2019-06-01T17:16:11.800Z,27.80
2019-06-01T17:18:43.936Z,27.80
2019-06-01T17:21:15.885Z,27.60
2019-06-01T17:23:48.114Z,27.80
2019-06-01T17:26:20.740Z,27.60
2019-06-01T17:28:53.028Z,27.50
2019-06-01T17:31:25.248Z,27.30
2019-06-01T17:33:58.332Z,27.30
2019-06-01T17:36:31.345Z,27.30
2019-06-01T17:39:03.934Z,26.90
2019-06-01T17:41:36.231Z,26.90
2019-06-01T17:44:09.005Z,26.80
2019-06-01T17:46:52.918Z,27.00
2019-06-01T17:49:14.861Z,27.10
2019-06-01T17:51:48.565Z,27.00
2019-06-01T17:54:20.427Z,26.80
2019-06-01T17:56:52.407Z,26.40
2019-06-01T17:59:24.871Z,26.70
2019-06-01T18:01:57.061Z,26.10
2019-06-01T18:04:28.994Z,26.10
2019-06-01T18:07:01.766Z,25.90
2019-06-01T18:09:34.053Z,25.40
2019-06-01T18:12:06.233Z,25.20
2019-06-01T18:14:38.817Z,25.10
2019-06-01T18:17:12.160Z,24.80
2019-06-01T18:19:44.846Z,24.60
2019-06-01T18:22:17.754Z,24.50
2019-06-01T18:24:50.460Z,24.40
2019-06-01T18:27:23.208Z,24.10
2019-06-01T18:29:56.506Z,24.00
2019-06-01T18:32:28.699Z,24.00
2019-06-01T18:35:01.222Z,23.70
2019-06-01T18:37:33.574Z,23.40
2019-06-01T18:40:05.679Z,23.30
2019-06-01T18:42:39.491Z,23.30
2019-06-01T18:45:13.550Z,23.20
2019-06-01T18:47:46.453Z,22.90
2019-06-01T18:50:18.595Z,22.70
2019-06-01T18:52:51.129Z,22.60
2019-06-01T18:55:23.057Z,22.70
2019-06-01T18:57:57.445Z,22.50
2019-06-01T19:00:29.434Z,22.50
2019-06-01T19:03:02.072Z,22.40
2019-06-01T19:05:34.602Z,22.10
2019-06-01T19:08:07.158Z,21.90
2019-06-01T19:10:39.672Z,21.90
2019-06-01T19:13:12.340Z,21.60
2019-06-01T19:15:44.235Z,21.30
2019-06-01T19:18:17.092Z,21.00
2019-06-01T19:20:49.795Z,21.00
2019-06-01T19:23:23.033Z,20.90
2019-06-01T19:25:55.407Z,21.00
2019-06-01T19:28:27.682Z,21.00
2019-06-01T19:30:59.556Z,20.80
2019-06-01T19:33:31.355Z,20.80
2019-06-01T19:36:03.600Z,20.70
2019-06-01T19:38:35.851Z,20.50
2019-06-01T19:41:07.699Z,20.40
2019-06-01T19:43:40.013Z,20.30
2019-06-01T19:46:12.165Z,20.20
2019-06-01T19:48:44.817Z,20.30
2019-06-01T19:51:18.691Z,20.10
2019-06-01T19:53:51.546Z,20.20
2019-06-01T19:56:23.976Z,20.10
2019-06-01T19:58:55.949Z,20.00
2019-06-01T20:01:27.956Z,19.80
2019-06-01T20:04:00.227Z,19.80
2019-06-01T20:06:32.364Z,19.90
2019-06-01T20:09:05.320Z,19.60
2019-06-01T20:11:37.123Z,19.50
2019-06-01T20:14:10.193Z,19.50
2019-06-01T20:16:42.590Z,19.20
2019-06-01T20:19:17.809Z,19.10
2019-06-01T20:21:50.357Z,19.00
2019-06-01T20:24:23.053Z,19.10
2019-06-01T20:26:55.185Z,19.00
2019-06-01T20:29:27.689Z,19.00
2019-06-01T20:32:00.361Z,19.00
2019-06-01T20:34:32.744Z,19.00
2019-06-01T20:37:05.312Z,18.60
2019-06-01T20:39:37.500Z,18.70
2019-06-01T20:42:20.688Z,18.60
2019-06-01T20:44:43.917Z,18.50
2019-06-01T20:47:16.684Z,18.50
2019-06-01T20:49:50.201Z,18.30
2019-06-01T20:52:23.302Z,18.30
2019-06-01T20:54:58.257Z,18.40
2019-06-01T20:57:30.612Z,18.20
2019-06-01T21:00:02.811Z,18.10
2019-06-01T21:02:34.670Z,18.10
2019-06-01T21:05:07.098Z,18.00
2019-06-01T21:07:39.628Z,18.00
2019-06-01T21:10:14.027Z,18.00
2019-06-01T21:12:46.409Z,17.90
2019-06-01T21:15:19.292Z,17.70
2019-06-01T21:17:51.679Z,17.60
2019-06-01T21:20:28.271Z,17.60
2019-06-01T21:22:57.327Z,17.70
2019-06-01T21:25:29.218Z,17.40
2019-06-01T21:28:01.210Z,17.60
2019-06-01T21:30:33.381Z,17.40
2019-06-01T21:33:05.246Z,17.40
2019-06-01T21:35:37.756Z,17.40
2019-06-01T21:38:09.971Z,17.30
2019-06-01T21:40:42.065Z,17.20
2019-06-01T21:43:28.626Z,17.40
2019-06-01T21:45:48.142Z,17.20
2019-06-01T21:48:20.023Z,17.40
2019-06-01T21:50:51.926Z,17.00
2019-06-01T21:53:24.633Z,17.10
2019-06-01T21:55:57.403Z,17.20
2019-06-01T21:58:45.063Z,17.00
2019-06-01T22:01:18.454Z,17.00
2019-06-01T22:03:50.692Z,16.90
2019-06-01T22:06:23.404Z,16.70
2019-06-01T22:08:55.789Z,16.90
2019-06-01T22:11:28.559Z,16.80
2019-06-01T22:14:00.461Z,17.00
2019-06-01T22:16:34.060Z,16.70
2019-06-01T22:19:11.097Z,16.80
2019-06-01T22:21:43.387Z,16.60
2019-06-01T22:24:17.708Z,16.50
2019-06-01T22:26:50.528Z,16.60
2019-06-01T22:29:22.670Z,16.40
2019-06-01T22:31:55.185Z,16.50
2019-06-01T22:34:27.347Z,16.60
2019-06-01T22:36:59.243Z,16.40
2019-06-01T22:39:31.365Z,16.50
2019-06-01T22:42:03.585Z,16.30
2019-06-01T22:44:35.459Z,16.50
2019-06-01T22:47:07.789Z,16.30
2019-06-01T22:49:39.652Z,16.40
2019-06-01T22:52:11.853Z,16.40
2019-06-01T22:54:44.018Z,16.40
2019-06-01T22:57:16.296Z,16.40
2019-06-01T22:59:48.446Z,16.10
2019-06-01T23:02:21.512Z,16.20
2019-06-01T23:04:54.099Z,16.30
2019-06-01T23:07:27.276Z,16.20
2019-06-01T23:09:59.684Z,16.30
2019-06-01T23:12:31.886Z,16.10
2019-06-01T23:15:03.775Z,16.10
2019-06-01T23:17:35.952Z,15.90
2019-06-01T23:20:08.557Z,15.90
2019-06-01T23:22:40.717Z,16.00
2019-06-01T23:25:12.636Z,16.00
2019-06-01T23:27:44.531Z,16.00
2019-06-01T23:30:16.655Z,15.90
2019-06-01T23:32:48.828Z,15.90
2019-06-01T23:35:22.284Z,16.00
2019-06-01T23:37:54.745Z,15.70
2019-06-01T23:40:27.194Z,15.60
2019-06-01T23:42:59.076Z,15.70
2019-06-01T23:45:31.218Z,15.70
2019-06-01T23:48:04.540Z,15.50
2019-06-01T23:50:36.807Z,15.60
2019-06-01T23:53:13.696Z,15.70
2019-06-01T23:55:44.279Z,15.90
2019-06-01T23:58:16.737Z,15.40
